Página principal
METAR-TAF:

METAR-TAF

Aeroportos :

Almagro, Espanha

latitude: 38-57-11N, longitude: 3-44-29W, altura: 629 m

Observação actual do tempo

O boletim foi feito há 16 minutos, às 06:00 UTC
Vento 1 kt com direcção variável
Temperatura 9°C
Humidade 71%
Pressão 1019 hPa
Visibilidade 10 km ou mais
sem nuvens abaixo de 1500 metros e sem cumulonimbus

METAR: LEAO 250600Z VRB01KT CAVOK 09/04 Q1019

Hora: 08:16 (06:16 UTC)

Previsão

O boletim foi feito há 4 horas e 16 minutos, às 02:00 UTC
Previsão válida de 25 às 03 UTC a 26 às 03 UTC
Vento 8 kt de nor-nordeste
Visibilidade 10 km ou mais
sem nuvens abaixo de 1500 metros e sem cumulonimbus

TAF: LEAO 250200Z 2503/2603 03008KT CAVOK TX21/2515Z TN08/2505Z

Observações e previsões do tempo de mais de 4000 aeroportos (mensagens METAR e TAF).

As estações disponíveis são os pontos amarelos e vermelhos sobre o mapa.

Mova o rato sobre o mapa para ver o nome da estação.

Depois clique no ponto para visualizar as observações e previsões meteorológicas.

Para alterar o mapa : clique nos botões verdes com uma cruz preta para aumentar o zoom; no botão verde com uma pitada de zoom; ou nas setas verdes para mapas adjacentes.


METAR-TAF: